CFG069 EDDF-LFKB
Flight info
| Callsign | CFG069 |
|---|---|
| Flight time | 1h 23m |
| Altitude | 37000 |
| Route | ANEKI6E ANEKI Y163 NATOR DCT TRA DCT RIPUS DCT GERSA DCT SOSON DCT ODINA DCT EVANO DCT KEMMI DCT OLETI M858 LIGUR LIGUR1R |
| Aircraft | A320/M-SDE3FGHIRWY/LB1 |
Departure
| Time | 2026-04-17 07:12 |
|---|---|
| Airport | Frankfurt Main Airport (EDDF) |
Arrival
| Time | 2026-04-17 08:35 |
|---|---|
| Airport | Bastia-Poretta International airport (LFKB) |
| Time | Latitude | Longitude | Altitude | Speed | Heading |
|---|---|---|---|---|---|
| 2026-04-17 06:54 | 50.04752 | 8.56883 | 356 ft | 0 kts | 294° |
| 2026-04-17 07:01 | 50.04749 | 8.56893 | 363 ft | 4 kts | 294° |
| 2026-04-17 07:02 | 50.04742 | 8.56919 | 356 ft | 4 kts | 293° |
| 2026-04-17 07:02 | 50.04732 | 8.56956 | 358 ft | 4 kts | 281° |
| 2026-04-17 07:02 | 50.04736 | 8.56990 | 361 ft | 4 kts | 217° |
| 2026-04-17 07:02 | 50.04754 | 8.57006 | 363 ft | 4 kts | 204° |
| 2026-04-17 07:03 | 50.04779 | 8.57024 | 360 ft | 4 kts | 205° |
| 2026-04-17 07:03 | 50.04795 | 8.57035 | 361 ft | 0 kts | 205° |
| 2026-04-17 07:07 | 50.04763 | 8.57013 | 358 ft | 10 kts | 204° |
| 2026-04-17 07:07 | 50.04691 | 8.56963 | 364 ft | 11 kts | 205° |
| 2026-04-17 07:08 | 50.04625 | 8.56919 | 359 ft | 10 kts | 198° |
| 2026-04-17 07:08 | 50.04553 | 8.56893 | 363 ft | 9 kts | 193° |
| 2026-04-17 07:08 | 50.04488 | 8.56868 | 359 ft | 12 kts | 197° |
| 2026-04-17 07:08 | 50.04426 | 8.56723 | 361 ft | 22 kts | 249° |
| 2026-04-17 07:09 | 50.04362 | 8.56454 | 361 ft | 30 kts | 249° |
| 2026-04-17 07:09 | 50.04287 | 8.56139 | 356 ft | 32 kts | 249° |
| 2026-04-17 07:09 | 50.04207 | 8.55806 | 354 ft | 34 kts | 249° |
| 2026-04-17 07:09 | 50.04123 | 8.55456 | 358 ft | 35 kts | 250° |
| 2026-04-17 07:10 | 50.04037 | 8.55099 | 360 ft | 35 kts | 249° |
| 2026-04-17 07:10 | 50.03950 | 8.54735 | 353 ft | 37 kts | 250° |
| 2026-04-17 07:10 | 50.03854 | 8.54357 | 350 ft | 38 kts | 238° |
| 2026-04-17 07:10 | 50.03742 | 8.53984 | 351 ft | 38 kts | 248° |
| 2026-04-17 07:11 | 50.03647 | 8.53590 | 345 ft | 39 kts | 248° |
| 2026-04-17 07:11 | 50.03549 | 8.53189 | 337 ft | 40 kts | 249° |
| 2026-04-17 07:11 | 50.03446 | 8.52787 | 333 ft | 35 kts | 246° |
| 2026-04-17 07:11 | 50.03353 | 8.52597 | 336 ft | 23 kts | 191° |
| 2026-04-17 07:12 | 50.03177 | 8.52595 | 335 ft | 36 kts | 179° |
| 2026-04-17 07:12 | 50.02659 | 8.52603 | 334 ft | 109 kts | 180° |
| 2026-04-17 07:12 | 50.01702 | 8.52613 | 390 ft | 156 kts | 176° |
| 2026-04-17 07:12 | 50.00711 | 8.52567 | 1189 ft | 136 kts | 186° |
| 2026-04-17 07:13 | 49.99810 | 8.52315 | 1808 ft | 130 kts | 189° |
| 2026-04-17 07:13 | 49.98842 | 8.52196 | 2021 ft | 156 kts | 178° |
| 2026-04-17 07:13 | 49.97614 | 8.52409 | 2173 ft | 192 kts | 160° |
| 2026-04-17 07:13 | 49.96417 | 8.53556 | 2597 ft | 215 kts | 134° |
| 2026-04-17 07:14 | 49.95573 | 8.55545 | 3302 ft | 226 kts | 118° |
| 2026-04-17 07:14 | 49.94827 | 8.57714 | 4162 ft | 230 kts | 120° |
| 2026-04-17 07:14 | 49.94170 | 8.59995 | 5055 ft | 235 kts | 105° |
| 2026-04-17 07:14 | 49.93957 | 8.62620 | 5586 ft | 258 kts | 94° |
| 2026-04-17 07:15 | 49.93840 | 8.65488 | 6291 ft | 271 kts | 96° |
| 2026-04-17 07:15 | 49.93399 | 8.68347 | 7168 ft | 276 kts | 114° |
| 2026-04-17 07:15 | 49.92363 | 8.70861 | 8031 ft | 280 kts | 134° |
| 2026-04-17 07:15 | 49.90849 | 8.72777 | 8895 ft | 284 kts | 146° |
| 2026-04-17 07:16 | 49.89267 | 8.74587 | 9754 ft | 289 kts | 139° |
| 2026-04-17 07:16 | 49.87914 | 8.76944 | 10417 ft | 302 kts | 124° |
| 2026-04-17 07:16 | 49.86825 | 8.79866 | 10737 ft | 325 kts | 118° |
| 2026-04-17 07:16 | 49.85706 | 8.83001 | 11303 ft | 337 kts | 119° |
| 2026-04-17 07:17 | 49.84556 | 8.86205 | 12042 ft | 343 kts | 118° |
| 2026-04-17 07:17 | 49.83380 | 8.89459 | 12796 ft | 349 kts | 119° |
| 2026-04-17 07:17 | 49.80958 | 8.96114 | 14249 ft | 360 kts | 119° |
| 2026-04-17 07:18 | 49.79718 | 8.99516 | 14910 ft | 365 kts | 119° |
| 2026-04-17 07:18 | 49.78464 | 9.02953 | 15586 ft | 369 kts | 119° |
| 2026-04-17 07:18 | 49.77193 | 9.06432 | 16266 ft | 374 kts | 118° |
| 2026-04-17 07:18 | 49.76107 | 9.10098 | 16921 ft | 377 kts | 109° |
| 2026-04-17 07:19 | 49.75123 | 9.13882 | 17584 ft | 382 kts | 116° |
| 2026-04-17 07:19 | 49.73676 | 9.17342 | 18215 ft | 386 kts | 132° |
| 2026-04-17 07:19 | 49.71591 | 9.19951 | 18793 ft | 389 kts | 154° |
| 2026-04-17 07:19 | 49.69022 | 9.21135 | 19329 ft | 388 kts | 178° |
| 2026-04-17 07:20 | 49.66358 | 9.20749 | 19890 ft | 384 kts | 199° |
| 2026-04-17 07:20 | 49.63964 | 9.18994 | 20445 ft | 381 kts | 219° |
| 2026-04-17 07:20 | 49.62099 | 9.16135 | 21003 ft | 378 kts | 238° |
| 2026-04-17 07:20 | 49.60974 | 9.12517 | 21564 ft | 375 kts | 257° |
| 2026-04-17 07:21 | 49.60593 | 9.08557 | 22146 ft | 375 kts | 267° |
| 2026-04-17 07:21 | 49.60347 | 9.04548 | 22740 ft | 378 kts | 265° |
| 2026-04-17 07:21 | 49.59871 | 9.00539 | 23329 ft | 383 kts | 258° |
| 2026-04-17 07:21 | 49.59037 | 8.96617 | 23892 ft | 388 kts | 251° |
| 2026-04-17 07:22 | 49.57856 | 8.92842 | 24362 ft | 394 kts | 243° |
| 2026-04-17 07:22 | 49.56338 | 8.89297 | 24824 ft | 399 kts | 236° |
| 2026-04-17 07:22 | 49.54485 | 8.86082 | 25272 ft | 406 kts | 225° |
| 2026-04-17 07:22 | 49.52144 | 8.83596 | 25705 ft | 415 kts | 209° |
| 2026-04-17 07:23 | 49.49374 | 8.82243 | 26119 ft | 424 kts | 191° |
| 2026-04-17 07:23 | 49.46424 | 8.81779 | 26545 ft | 428 kts | 188° |
| 2026-04-17 07:23 | 49.43447 | 8.81400 | 26966 ft | 430 kts | 187° |
| 2026-04-17 07:23 | 49.40454 | 8.81048 | 27381 ft | 433 kts | 187° |
| 2026-04-17 07:24 | 49.37440 | 8.80701 | 27793 ft | 435 kts | 187° |
| 2026-04-17 07:24 | 49.34412 | 8.80352 | 28192 ft | 438 kts | 187° |
| 2026-04-17 07:24 | 49.31366 | 8.79994 | 28578 ft | 440 kts | 187° |
| 2026-04-17 07:24 | 49.28303 | 8.79625 | 28957 ft | 443 kts | 187° |
| 2026-04-17 07:25 | 49.25223 | 8.79247 | 29326 ft | 445 kts | 187° |
| 2026-04-17 07:25 | 49.22125 | 8.78862 | 29675 ft | 448 kts | 187° |
| 2026-04-17 07:25 | 49.19011 | 8.78478 | 30028 ft | 450 kts | 187° |
| 2026-04-17 07:25 | 49.15880 | 8.78090 | 30354 ft | 452 kts | 187° |
| 2026-04-17 07:26 | 49.12778 | 8.77703 | 30634 ft | 455 kts | 187° |
| 2026-04-17 07:26 | 49.09617 | 8.77313 | 30915 ft | 457 kts | 188° |
| 2026-04-17 07:26 | 49.06443 | 8.76928 | 31182 ft | 459 kts | 188° |
| 2026-04-17 07:26 | 49.03252 | 8.76541 | 31449 ft | 461 kts | 188° |
| 2026-04-17 07:27 | 49.00047 | 8.76155 | 31702 ft | 463 kts | 188° |
| 2026-04-17 07:27 | 48.96832 | 8.75770 | 31992 ft | 464 kts | 188° |
| 2026-04-17 07:27 | 48.93618 | 8.75384 | 32363 ft | 463 kts | 188° |
| 2026-04-17 07:27 | 48.90413 | 8.74991 | 32718 ft | 462 kts | 188° |
| 2026-04-17 07:28 | 48.87209 | 8.74600 | 33071 ft | 462 kts | 188° |
| 2026-04-17 07:28 | 48.84009 | 8.74214 | 33433 ft | 461 kts | 188° |
| 2026-04-17 07:28 | 48.80813 | 8.73828 | 33786 ft | 461 kts | 188° |
| 2026-04-17 07:28 | 48.77619 | 8.73442 | 34141 ft | 460 kts | 188° |
| 2026-04-17 07:29 | 48.74430 | 8.73056 | 34464 ft | 460 kts | 188° |
| 2026-04-17 07:29 | 48.71241 | 8.72669 | 34771 ft | 459 kts | 188° |
| 2026-04-17 07:29 | 48.68062 | 8.72287 | 35055 ft | 458 kts | 188° |
| 2026-04-17 07:29 | 48.64887 | 8.71910 | 35324 ft | 457 kts | 188° |
| 2026-04-17 07:30 | 48.61753 | 8.71541 | 35610 ft | 457 kts | 188° |
| 2026-04-17 07:30 | 48.58586 | 8.71166 | 35899 ft | 456 kts | 188° |
| 2026-04-17 07:30 | 48.55429 | 8.70790 | 36173 ft | 455 kts | 188° |
| 2026-04-17 07:30 | 48.52274 | 8.70413 | 36437 ft | 454 kts | 188° |
| 2026-04-17 07:31 | 48.49126 | 8.70034 | 36695 ft | 454 kts | 188° |
| 2026-04-17 07:31 | 48.45982 | 8.69654 | 36950 ft | 453 kts | 188° |
| 2026-04-17 07:31 | 48.42840 | 8.69276 | 37175 ft | 453 kts | 188° |
| 2026-04-17 07:31 | 48.39700 | 8.68905 | 37219 ft | 450 kts | 188° |
| 2026-04-17 07:32 | 48.33471 | 8.68181 | 37223 ft | 448 kts | 188° |
| 2026-04-17 07:32 | 48.27251 | 8.67442 | 37225 ft | 448 kts | 188° |
| 2026-04-17 07:33 | 48.21034 | 8.66688 | 37220 ft | 448 kts | 188° |
| 2026-04-17 07:33 | 48.14817 | 8.65957 | 37224 ft | 448 kts | 188° |
| 2026-04-17 07:34 | 48.08596 | 8.65234 | 37222 ft | 448 kts | 188° |
| 2026-04-17 07:34 | 48.02374 | 8.64505 | 37224 ft | 449 kts | 188° |
| 2026-04-17 07:35 | 47.96151 | 8.63771 | 37226 ft | 449 kts | 188° |
| 2026-04-17 07:35 | 47.89926 | 8.63043 | 37228 ft | 449 kts | 188° |
| 2026-04-17 07:36 | 47.83695 | 8.62333 | 37231 ft | 449 kts | 188° |
| 2026-04-17 07:36 | 47.77514 | 8.61612 | 37235 ft | 449 kts | 188° |
| 2026-04-17 07:37 | 47.71289 | 8.60886 | 37238 ft | 448 kts | 188° |
| 2026-04-17 07:37 | 47.65479 | 8.60219 | 37244 ft | 448 kts | 187° |
| 2026-04-17 07:38 | 47.59262 | 8.59514 | 37249 ft | 448 kts | 187° |
| 2026-04-17 07:38 | 47.53741 | 8.58879 | 37253 ft | 448 kts | 187° |
| 2026-04-17 07:39 | 47.47656 | 8.58192 | 37249 ft | 448 kts | 188° |
| 2026-04-17 07:39 | 47.41445 | 8.57475 | 37248 ft | 447 kts | 188° |
| 2026-04-17 07:40 | 47.35239 | 8.56764 | 37247 ft | 447 kts | 188° |
| 2026-04-17 07:40 | 47.29036 | 8.56049 | 37241 ft | 447 kts | 187° |
| 2026-04-17 07:41 | 47.22839 | 8.55341 | 37242 ft | 447 kts | 187° |
| 2026-04-17 07:41 | 47.16632 | 8.54632 | 37238 ft | 447 kts | 187° |
| 2026-04-17 07:42 | 47.10427 | 8.53933 | 37241 ft | 447 kts | 187° |
| 2026-04-17 07:42 | 47.04217 | 8.53320 | 37242 ft | 449 kts | 182° |
| 2026-04-17 07:43 | 46.97971 | 8.54075 | 37240 ft | 451 kts | 177° |
| 2026-04-17 07:43 | 46.91722 | 8.54979 | 37240 ft | 451 kts | 177° |
| 2026-04-17 07:44 | 46.85473 | 8.55870 | 37236 ft | 452 kts | 177° |
| 2026-04-17 07:44 | 46.79214 | 8.56770 | 37227 ft | 451 kts | 177° |
| 2026-04-17 07:45 | 46.72970 | 8.57672 | 37219 ft | 451 kts | 177° |
| 2026-04-17 07:45 | 46.66726 | 8.58555 | 37213 ft | 451 kts | 177° |
| 2026-04-17 07:46 | 46.60471 | 8.59435 | 37206 ft | 451 kts | 177° |
| 2026-04-17 07:46 | 46.55234 | 8.60178 | 37209 ft | 451 kts | 177° |
| 2026-04-17 07:47 | 46.48983 | 8.61072 | 37213 ft | 452 kts | 177° |
| 2026-04-17 07:47 | 46.42731 | 8.61957 | 37207 ft | 451 kts | 177° |
| 2026-04-17 07:48 | 46.36481 | 8.62845 | 37204 ft | 451 kts | 177° |
| 2026-04-17 07:48 | 46.30230 | 8.63729 | 37213 ft | 452 kts | 177° |
| 2026-04-17 07:49 | 46.24018 | 8.64595 | 37211 ft | 451 kts | 177° |
| 2026-04-17 07:49 | 46.17899 | 8.65451 | 37213 ft | 452 kts | 177° |
| 2026-04-17 07:50 | 46.11953 | 8.66277 | 37210 ft | 452 kts | 177° |
| 2026-04-17 07:50 | 46.05684 | 8.67120 | 37212 ft | 453 kts | 177° |
| 2026-04-17 07:51 | 45.99403 | 8.67905 | 37218 ft | 453 kts | 178° |
| 2026-04-17 07:51 | 45.93122 | 8.68674 | 37223 ft | 453 kts | 177° |
| 2026-04-17 07:52 | 45.86842 | 8.69462 | 37209 ft | 453 kts | 177° |
| 2026-04-17 07:52 | 45.80562 | 8.70248 | 37195 ft | 453 kts | 177° |
| 2026-04-17 07:53 | 45.74285 | 8.71032 | 37192 ft | 453 kts | 177° |
| 2026-04-17 07:53 | 45.68007 | 8.71830 | 37187 ft | 453 kts | 177° |
| 2026-04-17 07:54 | 45.61733 | 8.72617 | 37190 ft | 453 kts | 177° |
| 2026-04-17 07:54 | 45.55456 | 8.73399 | 37188 ft | 453 kts | 177° |
| 2026-04-17 07:55 | 45.49181 | 8.74180 | 37188 ft | 452 kts | 177° |
| 2026-04-17 07:55 | 45.42910 | 8.74957 | 37187 ft | 452 kts | 177° |
| 2026-04-17 07:56 | 45.36642 | 8.75726 | 37185 ft | 452 kts | 177° |
| 2026-04-17 07:56 | 45.30369 | 8.76463 | 37181 ft | 452 kts | 178° |
| 2026-04-17 07:57 | 45.24100 | 8.77034 | 37178 ft | 452 kts | 179° |
| 2026-04-17 07:57 | 45.17828 | 8.77554 | 37180 ft | 451 kts | 179° |
| 2026-04-17 07:58 | 45.11555 | 8.78101 | 37177 ft | 451 kts | 178° |
| 2026-04-17 07:58 | 45.05286 | 8.78675 | 37178 ft | 451 kts | 178° |
| 2026-04-17 07:59 | 44.99017 | 8.79262 | 37179 ft | 451 kts | 178° |
| 2026-04-17 07:59 | 44.92749 | 8.79844 | 37178 ft | 451 kts | 178° |
| 2026-04-17 08:00 | 44.86480 | 8.80414 | 37177 ft | 452 kts | 178° |
| 2026-04-17 08:00 | 44.80208 | 8.80980 | 37175 ft | 452 kts | 178° |
| 2026-04-17 08:01 | 44.73941 | 8.81734 | 37171 ft | 453 kts | 174° |
| 2026-04-17 08:01 | 44.67706 | 8.83043 | 37152 ft | 453 kts | 172° |
| 2026-04-17 08:02 | 44.61482 | 8.84495 | 37136 ft | 454 kts | 172° |
| 2026-04-17 08:02 | 44.55240 | 8.85855 | 37129 ft | 454 kts | 173° |
| 2026-04-17 08:03 | 44.48994 | 8.87118 | 37134 ft | 454 kts | 173° |
| 2026-04-17 08:03 | 44.42744 | 8.88366 | 37132 ft | 454 kts | 173° |
| 2026-04-17 08:04 | 44.36492 | 8.89634 | 37135 ft | 454 kts | 173° |
| 2026-04-17 08:04 | 44.30243 | 8.90912 | 37139 ft | 454 kts | 173° |
| 2026-04-17 08:05 | 44.23991 | 8.92188 | 37143 ft | 454 kts | 173° |
| 2026-04-17 08:05 | 44.17745 | 8.93458 | 37140 ft | 454 kts | 173° |
| 2026-04-17 08:06 | 44.11497 | 8.94720 | 37146 ft | 454 kts | 173° |
| 2026-04-17 08:06 | 44.05247 | 8.95985 | 37147 ft | 454 kts | 173° |
| 2026-04-17 08:07 | 43.98996 | 8.97250 | 37152 ft | 454 kts | 173° |
| 2026-04-17 08:07 | 43.92741 | 8.98501 | 37156 ft | 454 kts | 173° |
| 2026-04-17 08:08 | 43.86480 | 8.99753 | 37162 ft | 455 kts | 173° |
| 2026-04-17 08:08 | 43.80205 | 9.00687 | 37154 ft | 452 kts | 182° |
| 2026-04-17 08:09 | 43.73945 | 9.00045 | 37155 ft | 451 kts | 187° |
| 2026-04-17 08:09 | 43.67694 | 8.99305 | 37161 ft | 451 kts | 187° |
| 2026-04-17 08:10 | 43.61444 | 8.98566 | 37145 ft | 451 kts | 187° |
| 2026-04-17 08:10 | 43.55238 | 8.97845 | 37154 ft | 451 kts | 186° |
| 2026-04-17 08:11 | 43.48945 | 8.97115 | 37156 ft | 451 kts | 187° |
| 2026-04-17 08:11 | 43.42691 | 8.96379 | 37155 ft | 451 kts | 187° |
| 2026-04-17 08:12 | 43.36474 | 8.95642 | 37154 ft | 452 kts | 186° |
| 2026-04-17 08:12 | 43.30207 | 8.94904 | 37144 ft | 452 kts | 186° |
| 2026-04-17 08:13 | 43.23923 | 8.94356 | 36992 ft | 453 kts | 175° |
| 2026-04-17 08:13 | 43.20893 | 8.95425 | 36395 ft | 451 kts | 154° |
| 2026-04-17 08:14 | 43.15415 | 8.99687 | 35166 ft | 456 kts | 147° |
| 2026-04-17 08:14 | 43.12746 | 9.02010 | 34605 ft | 454 kts | 147° |
| 2026-04-17 08:14 | 43.10096 | 9.04343 | 34037 ft | 452 kts | 147° |
| 2026-04-17 08:14 | 43.07449 | 9.06638 | 33386 ft | 450 kts | 147° |
| 2026-04-17 08:15 | 43.04791 | 9.08884 | 32737 ft | 448 kts | 148° |
| 2026-04-17 08:15 | 43.02127 | 9.11085 | 32116 ft | 446 kts | 148° |
| 2026-04-17 08:15 | 42.99464 | 9.13251 | 31505 ft | 444 kts | 148° |
| 2026-04-17 08:15 | 42.96809 | 9.15396 | 30909 ft | 442 kts | 148° |
| 2026-04-17 08:16 | 42.94167 | 9.17532 | 30327 ft | 440 kts | 148° |
| 2026-04-17 08:16 | 42.91542 | 9.19664 | 29667 ft | 438 kts | 148° |
| 2026-04-17 08:16 | 42.88929 | 9.21795 | 29005 ft | 436 kts | 148° |
| 2026-04-17 08:16 | 42.86335 | 9.23917 | 28355 ft | 434 kts | 148° |
| 2026-04-17 08:17 | 42.83757 | 9.26028 | 27718 ft | 431 kts | 148° |
| 2026-04-17 08:17 | 42.81190 | 9.28129 | 27096 ft | 429 kts | 148° |
| 2026-04-17 08:17 | 42.78638 | 9.30212 | 26490 ft | 426 kts | 148° |
| 2026-04-17 08:17 | 42.76100 | 9.32283 | 25898 ft | 424 kts | 148° |
| 2026-04-17 08:18 | 42.73578 | 9.34338 | 25317 ft | 422 kts | 148° |
| 2026-04-17 08:18 | 42.71067 | 9.36378 | 24747 ft | 419 kts | 148° |
| 2026-04-17 08:18 | 42.68567 | 9.38405 | 24183 ft | 417 kts | 148° |
| 2026-04-17 08:18 | 42.66080 | 9.40419 | 23620 ft | 415 kts | 148° |
| 2026-04-17 08:19 | 42.63602 | 9.42425 | 22955 ft | 414 kts | 148° |
| 2026-04-17 08:19 | 42.61135 | 9.44420 | 22114 ft | 408 kts | 148° |
| 2026-04-17 08:19 | 42.58725 | 9.46369 | 21321 ft | 399 kts | 148° |
| 2026-04-17 08:19 | 42.56366 | 9.48272 | 20547 ft | 390 kts | 148° |
| 2026-04-17 08:20 | 42.54047 | 9.50108 | 19775 ft | 383 kts | 149° |
| 2026-04-17 08:20 | 42.51758 | 9.51888 | 19014 ft | 376 kts | 149° |
| 2026-04-17 08:20 | 42.49501 | 9.53627 | 18204 ft | 371 kts | 149° |
| 2026-04-17 08:20 | 42.47266 | 9.55346 | 17307 ft | 367 kts | 149° |
| 2026-04-17 08:21 | 42.45059 | 9.57048 | 16341 ft | 365 kts | 149° |
| 2026-04-17 08:21 | 42.42848 | 9.58756 | 15294 ft | 366 kts | 149° |
| 2026-04-17 08:21 | 42.40633 | 9.60452 | 14286 ft | 366 kts | 149° |
| 2026-04-17 08:21 | 42.38376 | 9.62017 | 13215 ft | 364 kts | 160° |
| 2026-04-17 08:22 | 42.35886 | 9.62422 | 12126 ft | 362 kts | 187° |
| 2026-04-17 08:22 | 42.33544 | 9.61324 | 11092 ft | 357 kts | 214° |
| 2026-04-17 08:22 | 42.31835 | 9.58977 | 10081 ft | 350 kts | 240° |
| 2026-04-17 08:22 | 42.30726 | 9.56084 | 8974 ft | 344 kts | 240° |
| 2026-04-17 08:23 | 42.29187 | 9.53649 | 7907 ft | 342 kts | 218° |
| 2026-04-17 08:23 | 42.27092 | 9.52193 | 6914 ft | 339 kts | 194° |
| 2026-04-17 08:23 | 42.24809 | 9.51993 | 6261 ft | 324 kts | 171° |
| 2026-04-17 08:23 | 42.22663 | 9.52658 | 5647 ft | 310 kts | 164° |
| 2026-04-17 08:24 | 42.20624 | 9.53402 | 5071 ft | 298 kts | 163° |
| 2026-04-17 08:24 | 42.18656 | 9.54122 | 4490 ft | 289 kts | 163° |
| 2026-04-17 08:24 | 42.16754 | 9.54846 | 3905 ft | 279 kts | 159° |
| 2026-04-17 08:24 | 42.15152 | 9.56212 | 3337 ft | 269 kts | 130° |
| 2026-04-17 08:25 | 42.14229 | 9.58318 | 2764 ft | 258 kts | 105° |
| 2026-04-17 08:25 | 42.14042 | 9.60620 | 2451 ft | 236 kts | 82° |
| 2026-04-17 08:25 | 42.14447 | 9.62620 | 2401 ft | 209 kts | 61° |
| 2026-04-17 08:25 | 42.15258 | 9.64189 | 2407 ft | 203 kts | 43° |
| 2026-04-17 08:26 | 42.16384 | 9.65292 | 2407 ft | 200 kts | 25° |
| 2026-04-17 08:26 | 42.17716 | 9.65843 | 2410 ft | 202 kts | 6° |
| 2026-04-17 08:26 | 42.19115 | 9.65782 | 2405 ft | 202 kts | 348° |
| 2026-04-17 08:26 | 42.20448 | 9.65169 | 2410 ft | 204 kts | 339° |
| 2026-04-17 08:27 | 42.21773 | 9.64476 | 2410 ft | 204 kts | 340° |
| 2026-04-17 08:27 | 42.23078 | 9.63803 | 2403 ft | 193 kts | 340° |
| 2026-04-17 08:27 | 42.24314 | 9.63168 | 2401 ft | 188 kts | 340° |
| 2026-04-17 08:27 | 42.25529 | 9.62541 | 2405 ft | 186 kts | 340° |
| 2026-04-17 08:28 | 42.26733 | 9.61920 | 2406 ft | 185 kts | 340° |
| 2026-04-17 08:28 | 42.27919 | 9.61307 | 2407 ft | 185 kts | 340° |
| 2026-04-17 08:28 | 42.29072 | 9.60710 | 2434 ft | 165 kts | 340° |
| 2026-04-17 08:28 | 42.30166 | 9.60144 | 2420 ft | 179 kts | 340° |
| 2026-04-17 08:29 | 42.31346 | 9.59534 | 2404 ft | 183 kts | 340° |
| 2026-04-17 08:29 | 42.32544 | 9.58914 | 2403 ft | 185 kts | 340° |
| 2026-04-17 08:29 | 42.33747 | 9.58290 | 2406 ft | 185 kts | 340° |
| 2026-04-17 08:29 | 42.34952 | 9.57665 | 2409 ft | 185 kts | 340° |
| 2026-04-17 08:30 | 42.36155 | 9.57039 | 2410 ft | 183 kts | 340° |
| 2026-04-17 08:30 | 42.36920 | 9.56641 | 2404 ft | 165 kts | 340° |
| 2026-04-17 08:30 | 42.37925 | 9.56116 | 2408 ft | 148 kts | 340° |
| 2026-04-17 08:30 | 42.38870 | 9.55625 | 2415 ft | 143 kts | 340° |
| 2026-04-17 08:31 | 42.39787 | 9.55119 | 2414 ft | 142 kts | 336° |
| 2026-04-17 08:31 | 42.40680 | 9.54606 | 2414 ft | 141 kts | 341° |
| 2026-04-17 08:31 | 42.41601 | 9.54154 | 2408 ft | 140 kts | 342° |
| 2026-04-17 08:31 | 42.42530 | 9.53734 | 2361 ft | 142 kts | 344° |
| 2026-04-17 08:32 | 42.43475 | 9.53322 | 2187 ft | 140 kts | 344° |
| 2026-04-17 08:32 | 42.44411 | 9.52924 | 2034 ft | 140 kts | 344° |
| 2026-04-17 08:32 | 42.45340 | 9.52532 | 1852 ft | 139 kts | 344° |
| 2026-04-17 08:32 | 42.46270 | 9.52142 | 1690 ft | 141 kts | 343° |
| 2026-04-17 08:33 | 42.47208 | 9.51749 | 1464 ft | 139 kts | 344° |
| 2026-04-17 08:33 | 42.48141 | 9.51358 | 1294 ft | 140 kts | 343° |
| 2026-04-17 08:33 | 42.49071 | 9.50969 | 1101 ft | 140 kts | 343° |
| 2026-04-17 08:33 | 42.50006 | 9.50579 | 931 ft | 141 kts | 343° |
| 2026-04-17 08:34 | 42.50936 | 9.50182 | 778 ft | 139 kts | 342° |
| 2026-04-17 08:34 | 42.51874 | 9.49775 | 557 ft | 142 kts | 343° |
| 2026-04-17 08:34 | 42.52793 | 9.49403 | 378 ft | 136 kts | 343° |
| 2026-04-17 08:34 | 42.53737 | 9.49007 | 202 ft | 142 kts | 343° |
| 2026-04-17 08:35 | 42.54638 | 9.48627 | 33 ft | 125 kts | 342° |
| 2026-04-17 08:35 | 42.55264 | 9.48373 | 31 ft | 53 kts | 344° |
| 2026-04-17 08:35 | 42.55576 | 9.48244 | 27 ft | 53 kts | 343° |
| 2026-04-17 08:35 | 42.55895 | 9.48110 | 26 ft | 39 kts | 341° |
| 2026-04-17 08:36 | 42.55952 | 9.47955 | 24 ft | 19 kts | 256° |
| 2026-04-17 08:36 | 42.55856 | 9.47873 | 25 ft | 17 kts | 166° |
| 2026-04-17 08:36 | 42.55748 | 9.47918 | 28 ft | 15 kts | 163° |
| 2026-04-17 08:36 | 42.55650 | 9.47959 | 26 ft | 14 kts | 163° |
| 2026-04-17 08:37 | 42.55561 | 9.47995 | 26 ft | 13 kts | 162° |
| 2026-04-17 08:37 | 42.55483 | 9.48030 | 27 ft | 11 kts | 162° |
| 2026-04-17 08:37 | 42.55413 | 9.48058 | 27 ft | 10 kts | 163° |
| 2026-04-17 08:37 | 42.55317 | 9.48100 | 28 ft | 18 kts | 161° |
| 2026-04-17 08:38 | 42.55206 | 9.48147 | 29 ft | 16 kts | 163° |
| 2026-04-17 08:38 | 42.55108 | 9.48186 | 29 ft | 14 kts | 162° |
| 2026-04-17 08:38 | 42.55021 | 9.48223 | 30 ft | 12 kts | 163° |
| 2026-04-17 08:38 | 42.54941 | 9.48237 | 30 ft | 11 kts | 174° |
| 2026-04-17 08:39 | 42.54871 | 9.48264 | 30 ft | 10 kts | 163° |
| 2026-04-17 08:39 | 42.54810 | 9.48288 | 31 ft | 9 kts | 163° |
| 2026-04-17 08:39 | 42.54773 | 9.48263 | 30 ft | 6 kts | 260° |
| 2026-04-17 08:39 | 42.54780 | 9.48209 | 29 ft | 6 kts | 283° |
| 2026-04-17 08:40 | 42.54783 | 9.48189 | 31 ft | 2 kts | 283° |
| 2026-04-17 08:40 | 42.54785 | 9.48182 | 31 ft | 0 kts | 283° |